Emerald Leader — C6WP4 — position and weather

sailwx.info

Track history (hours):
 
Tides and Currents Weather Stations Pressure Air Temp Water Temp Dewpoint Dewpoint Depression Visibility Wind Speed Wind Dir Waves Ship Positions

Emerald Leader

Last reported at 2015-Mar-04 10:31 UTC. Time now 2015-Mar-04 11:24 UTC.
Position N 53°34' E 008°34'.

Length 176 m; draft 8.2 m.

Type: Cargo ship. MMSI: 308688000.

Date/timePositionNaut miles runAvg speedWind from/ knotsBaromVisibWave heightAir tempDewpointWater temp
2015-Mar-04 10:31N 53°34' E 008°34'0 0.0
2015-Mar-04 09:31N 53°34' E 008°34'0 0.0
2015-Mar-04 08:31N 53°34' E 008°34'0 0.0
2015-Mar-04 07:28N 53°34' E 008°34'0 0.0
2015-Mar-04 06:31N 53°34' E 008°34'0 0.0
2015-Mar-04 05:31N 53°34' E 008°34'0 0.0
2015-Mar-04 04:31N 53°34' E 008°34'0 0.0
2015-Mar-04 03:31N 53°34' E 008°34'0 0.0
2015-Mar-04 02:31N 53°34' E 008°34'0 0.0
2015-Mar-04 01:31N 53°34' E 008°34'0 0.0
2015-Mar-04 00:28N 53°34' E 008°34'0 0.0
2015-Mar-03 23:31N 53°34' E 008°34'0 0.0
2015-Mar-03 22:31N 53°34' E 008°34'0 0.0
2015-Mar-03 21:28N 53°34' E 008°34'0 0.0
2015-Mar-03 20:31N 53°34' E 008°34'0 0.0
2015-Mar-03 19:31N 53°34' E 008°34'0 0.0
2015-Mar-03 18:31N 53°34' E 008°34'0 0.0
2015-Mar-03 17:31N 53°34' E 008°34'0 0.0
2015-Mar-03 16:31N 53°34' E 008°34'0 0.0
2015-Mar-03 15:31N 53°34' E 008°34'0 0.0
2015-Mar-03 14:28N 53°34' E 008°34'0 0.0
2015-Mar-03 13:31N 53°34' E 008°34'0 0.0
2015-Mar-03 12:31N 53°34' E 008°34'0 0.0
2015-Mar-03 11:28N 53°34' E 008°34'0 0.0
2015-Mar-03 10:28N 53°34' E 008°34'0 0.0
2015-Mar-03 09:31N 53°34' E 008°34'0 0.0
2015-Mar-03 08:31N 53°34' E 008°34'0 0.0
2015-Mar-03 07:31N 53°34' E 008°34'0 0.0
2015-Mar-03 06:31N 53°34' E 008°34'0 0.0
2015-Mar-03 05:31N 53°34' E 008°34'0 0.0
2015-Mar-03 04:31N 53°34' E 008°34'0 0.5
2015-Mar-03 03:33N 53°34' E 008°33'2 2.3
2015-Mar-03 02:33N 53°36' E 008°31'10 9.8
2015-Mar-03 01:33N 53°43' E 008°18'1414.0
2015-Mar-03 00:33N 53°51' E 007°60'9 9.0
2015-Mar-02 23:33N 53°54' E 007°45'1 1.4
2015-Mar-02 22:33N 53°53' E 007°46'7 7.1
2015-Mar-02 21:33N 53°54' E 007°35'7 7.5
2015-Mar-02 20:33N 53°53' E 007°22'9 8.9
2015-Mar-02 19:33N 53°51' E 007°07'3310.9
2015-Mar-02 16:32N 53°44' E 006°13'1110.8
2015-Mar-02 15:33N 53°40' E 005°56'1110.6
2015-Mar-02 14:33N 53°37' E 005°39'1414.3
2015-Mar-02 13:34N 53°32' E 005°16'1515.3
2015-Mar-02 12:34N 53°27' E 004°52'2013.9
2015-Mar-02 11:07N 53°11' E 004°31'1114.3
2015-Mar-02 10:23N 53°02' E 004°23'11114.2
2015-Mar-02 02:33N 51°38' E 002°25'1615.8
2015-Mar-02 01:34N 51°24' E 002°11'1615.6
2015-Mar-02 00:34N 51°12' E 001°56'1716.7
2015-Mar-01 23:33N 51°01' E 001°37'34014.8
2015-Mar-01 00:33N 48°15' W 006°02'1515.4
2015-Feb-28 23:33N 48°01' W 006°12'55511.3
2015-Feb-26 22:31N 39°10' W 009°53'1515.0
2015-Feb-26 21:33N 38°55' W 009°52'1514.9
2015-Feb-26 20:33N 38°40' W 009°51'1514.9
2015-Feb-26 19:33N 38°26' W 009°47'1614.6
2015-Feb-26 18:29N 38°11' W 009°42'1314.2
2015-Feb-26 17:33N 37°58' W 009°39'1514.4
2015-Feb-26 16:33N 37°44' W 009°35'22012.9
2015-Feb-25 23:27N 35°58' W 005°34'1112.1
2015-Feb-25 22:33N 36°01' W 005°21'  
2015-Feb-23 02:23N 36°40' E 013°41'1315.2
2015-Feb-23 01:30N 36°36' E 013°57'1415.2
2015-Feb-23 00:33N 36°32' E 014°14'  
Track history (hours):
 
Tides and Currents Weather Stations Pressure Air Temp Water Temp Dewpoint Dewpoint Depression Visibility Wind Speed Wind Dir Waves Ship Positions

Emerald Leader

Last reported at 2015-Mar-04 10:31 UTC. Time now 2015-Mar-04 11:24 UTC.
Position N 53°34' E 008°34'.

Length 176 m; draft 8.2 m.

Type: Cargo ship. MMSI: 308688000.

Date/timePositionNaut miles runAvg speedWind from/ knotsBaromVisibWave heightAir tempDewpointWater temp
2015-Mar-04 10:31N 53°34' E 008°34'0 0.0
2015-Mar-04 09:31N 53°34' E 008°34'0 0.0
2015-Mar-04 08:31N 53°34' E 008°34'0 0.0
2015-Mar-04 07:28N 53°34' E 008°34'0 0.0
2015-Mar-04 06:31N 53°34' E 008°34'0 0.0
2015-Mar-04 05:31N 53°34' E 008°34'0 0.0
2015-Mar-04 04:31N 53°34' E 008°34'0 0.0
2015-Mar-04 03:31N 53°34' E 008°34'0 0.0
2015-Mar-04 02:31N 53°34' E 008°34'0 0.0
2015-Mar-04 01:31N 53°34' E 008°34'0 0.0
2015-Mar-04 00:28N 53°34' E 008°34'0 0.0
2015-Mar-03 23:31N 53°34' E 008°34'0 0.0
2015-Mar-03 22:31N 53°34' E 008°34'0 0.0
2015-Mar-03 21:28N 53°34' E 008°34'0 0.0
2015-Mar-03 20:31N 53°34' E 008°34'0 0.0
2015-Mar-03 19:31N 53°34' E 008°34'0 0.0
2015-Mar-03 18:31N 53°34' E 008°34'0 0.0
2015-Mar-03 17:31N 53°34' E 008°34'0 0.0
2015-Mar-03 16:31N 53°34' E 008°34'0 0.0
2015-Mar-03 15:31N 53°34' E 008°34'0 0.0
2015-Mar-03 14:28N 53°34' E 008°34'0 0.0
2015-Mar-03 13:31N 53°34' E 008°34'0 0.0
2015-Mar-03 12:31N 53°34' E 008°34'0 0.0
2015-Mar-03 11:28N 53°34' E 008°34'0 0.0
2015-Mar-03 10:28N 53°34' E 008°34'0 0.0
2015-Mar-03 09:31N 53°34' E 008°34'0 0.0
2015-Mar-03 08:31N 53°34' E 008°34'0 0.0
2015-Mar-03 07:31N 53°34' E 008°34'0 0.0
2015-Mar-03 06:31N 53°34' E 008°34'0 0.0
2015-Mar-03 05:31N 53°34' E 008°34'0 0.0
2015-Mar-03 04:31N 53°34' E 008°34'0 0.5
2015-Mar-03 03:33N 53°34' E 008°33'2 2.3
2015-Mar-03 02:33N 53°36' E 008°31'10 9.8
2015-Mar-03 01:33N 53°43' E 008°18'1414.0
2015-Mar-03 00:33N 53°51' E 007°60'9 9.0
2015-Mar-02 23:33N 53°54' E 007°45'1 1.4
2015-Mar-02 22:33N 53°53' E 007°46'7 7.1
2015-Mar-02 21:33N 53°54' E 007°35'7 7.5
2015-Mar-02 20:33N 53°53' E 007°22'9 8.9
2015-Mar-02 19:33N 53°51' E 007°07'3310.9
2015-Mar-02 16:32N 53°44' E 006°13'1110.8
2015-Mar-02 15:33N 53°40' E 005°56'1110.6
2015-Mar-02 14:33N 53°37' E 005°39'1414.3
2015-Mar-02 13:34N 53°32' E 005°16'1515.3
2015-Mar-02 12:34N 53°27' E 004°52'2013.9
2015-Mar-02 11:07N 53°11' E 004°31'1114.3
2015-Mar-02 10:23N 53°02' E 004°23'11114.2
2015-Mar-02 02:33N 51°38' E 002°25'1615.8
2015-Mar-02 01:34N 51°24' E 002°11'1615.6
2015-Mar-02 00:34N 51°12' E 001°56'1716.7
2015-Mar-01 23:33N 51°01' E 001°37'34014.8
2015-Mar-01 00:33N 48°15' W 006°02'1515.4
2015-Feb-28 23:33N 48°01' W 006°12'55511.3
2015-Feb-26 22:31N 39°10' W 009°53'1515.0
2015-Feb-26 21:33N 38°55' W 009°52'1514.9
2015-Feb-26 20:33N 38°40' W 009°51'1514.9
2015-Feb-26 19:33N 38°26' W 009°47'1614.6
2015-Feb-26 18:29N 38°11' W 009°42'1314.2
2015-Feb-26 17:33N 37°58' W 009°39'1514.4
2015-Feb-26 16:33N 37°44' W 009°35'22012.9
2015-Feb-25 23:27N 35°58' W 005°34'1112.1
2015-Feb-25 22:33N 36°01' W 005°21'  
2015-Feb-23 02:23N 36°40' E 013°41'1315.2
2015-Feb-23 01:30N 36°36' E 013°57'1415.2
2015-Feb-23 00:33N 36°32' E 014°14'  

Dump ship's entire track history